Time;durP1;ratioP1;P1;durP2;ratioP2;P2;SDS_P1;SDS_P2;PMS_P1;PMS_P2;Temp;Humidity;BMP_temperature;BMP_pressure;BME280_temperature;BME280_humidity;BME280_pressure;Samples;Min_cycle;Max_cycle;Signal;HPM_P1;HPM_P2
2021/05/03 00:01:20;;;;;;;8.43;5.47;;;;;;;10.32;70.32;100142.75;5093850;28;20381;-75
2021/05/03 00:03:46;;;;;;;7.30;5.55;;;;;;;10.31;70.52;100149.06;5076148;28;20377;-76
2021/05/03 00:06:12;;;;;;;7.20;5.60;;;;;;;10.36;70.32;100153.25;5093555;28;20031;-76
2021/05/03 00:08:38;;;;;;;7.82;6.00;;;;;;;10.37;70.55;100160.31;5075888;28;20048;-77
2021/05/03 00:11:03;;;;;;;8.30;6.20;;;;;;;10.24;70.20;100142.41;5094073;28;20518;-77
2021/05/03 00:13:29;;;;;;;7.95;6.45;;;;;;;10.20;70.75;100146.16;5075771;28;20036;-76
2021/05/03 00:15:54;;;;;;;9.20;6.93;;;;;;;10.18;70.86;100153.38;5093839;28;20032;-77
2021/05/03 00:18:20;;;;;;;8.43;6.05;;;;;;;10.28;70.62;100154.56;5093359;28;20055;-77
2021/05/03 00:20:46;;;;;;;9.38;6.20;;;;;;;10.32;70.32;100164.09;5059016;28;20046;-77
2021/05/03 00:23:12;;;;;;;8.15;6.25;;;;;;;10.42;70.51;100166.19;5075446;28;20123;-77
2021/05/03 00:25:38;;;;;;;8.30;6.15;;;;;;;10.32;70.84;100179.22;5093872;28;20136;-77
2021/05/03 00:28:04;;;;;;;7.90;6.45;;;;;;;10.36;70.56;100172.78;5058775;28;20060;-76
2021/05/03 00:30:29;;;;;;;10.20;7.28;;;;;;;10.40;70.44;100173.44;5075697;28;20120;-74
2021/05/03 00:32:54;;;;;;;9.95;6.85;;;;;;;10.30;70.73;100178.47;5075533;28;20036;-76
2021/05/03 00:35:20;;;;;;;9.27;6.55;;;;;;;10.31;70.82;100206.84;5093221;28;20549;-76
2021/05/03 00:37:45;;;;;;;9.07;6.63;;;;;;;10.21;71.13;100177.19;5075259;28;20028;-77
2021/05/03 00:40:11;;;;;;;9.07;6.35;;;;;;;10.12;71.34;100180.38;5093292;28;20032;-78
2021/05/03 00:42:37;;;;;;;9.60;6.78;;;;;;;10.25;71.23;100192.09;5093672;28;20077;-76
2021/05/03 00:45:12;;;;;;;10.15;7.25;;;;;;;10.13;70.96;100181.25;5093118;28;20047;-79
2021/05/03 00:47:38;;;;;;;9.35;6.88;;;;;;;10.20;71.42;100210.13;5093412;28;20032;-73
2021/05/03 00:50:06;;;;;;;9.95;6.55;;;;;;;10.15;71.37;100212.22;5093131;28;20036;-76
2021/05/03 00:52:32;;;;;;;9.80;6.70;;;;;;;10.16;71.42;100219.25;5093482;28;20069;-73
2021/05/03 00:54:57;;;;;;;8.65;6.80;;;;;;;9.81;71.92;100175.16;5093019;28;20071;-73
2021/05/03 00:57:23;;;;;;;8.85;6.55;;;;;;;10.16;71.50;100224.59;5074773;28;20795;-74
2021/05/03 00:59:49;;;;;;;10.63;6.90;;;;;;;10.05;71.52;100205.72;5075371;28;20071;-74
2021/05/03 01:02:14;;;;;;;10.38;7.55;;;;;;;9.94;71.27;100193.03;5092656;28;20062;-74
2021/05/03 01:04:41;;;;;;;10.70;7.28;;;;;;;10.10;71.74;100235.59;5093335;28;20071;-73
2021/05/03 01:07:06;;;;;;;10.35;7.25;;;;;;;10.23;71.10;100239.31;5074695;28;20535;-75
2021/05/03 01:09:32;;;;;;;13.80;7.70;;;;;;;10.13;70.79;100223.88;5092885;28;20061;-74
2021/05/03 01:11:58;;;;;;;9.77;7.45;;;;;;;10.10;70.74;100227.59;5074747;28;20039;-75
2021/05/03 01:14:23;;;;;;;9.70;7.10;;;;;;;10.23;70.39;100231.31;5092534;28;20091;-77
2021/05/03 01:16:49;;;;;;;10.65;7.55;;;;;;;10.19;70.54;100240.41;5074923;28;20060;-78
2021/05/03 01:19:19;;;;;;;10.50;7.82;;;;;;;10.16;70.91;100237.91;5092652;28;20039;-79
2021/05/03 01:21:44;;;;;;;12.00;7.68;;;;;;;10.20;70.57;100234.13;5093064;28;20085;-81
2021/05/03 01:24:10;;;;;;;10.45;7.53;;;;;;;10.30;70.38;100243.31;5092805;28;20127;-77
2021/05/03 01:26:35;;;;;;;10.63;7.70;;;;;;;10.25;70.37;100260.53;5093141;28;20035;-77
2021/05/03 01:29:01;;;;;;;12.52;8.35;;;;;;;10.20;70.29;100247.44;5075053;28;20062;-77
2021/05/03 01:31:27;;;;;;;11.57;8.38;;;;;;;10.18;70.45;100251.16;5074505;28;20494;-77
2021/05/03 01:33:52;;;;;;;12.27;8.70;;;;;;;10.15;70.71;100256.66;5092657;28;20024;-76
2021/05/03 01:36:18;;;;;;;12.27;8.48;;;;;;;10.12;70.63;100260.34;5092714;28;20039;-79
2021/05/03 01:38:43;;;;;;;12.98;9.25;;;;;;;10.02;70.72;100260.03;5092800;28;20040;-78
2021/05/03 01:41:09;;;;;;;13.55;9.45;;;;;;;10.06;70.12;100266.06;5058329;28;20040;-79
2021/05/03 01:43:35;;;;;;;13.50;9.27;;;;;;;10.10;70.34;100270.25;5093030;28;20043;-78
2021/05/03 01:46:00;;;;;;;13.35;8.98;;;;;;;10.07;70.02;100275.75;5074748;28;20044;-75
2021/05/03 01:48:28;;;;;;;13.07;9.65;;;;;;;10.04;69.61;100283.94;5092595;28;20047;-73
2021/05/03 01:50:55;;;;;;;13.32;9.77;;;;;;;10.02;69.79;100286.66;5094975;28;20032;-76
2021/05/03 01:53:22;;;;;;;12.23;8.85;;;;;;;9.97;68.83;100283.44;5096359;28;20068;-75
2021/05/03 01:55:53;;;;;;;12.07;8.77;;;;;;;9.77;67.73;100241.09;5078493;28;20056;-76
2021/05/03 01:58:19;;;;;;;11.70;9.13;;;;;;;10.02;67.83;100275.16;5096728;28;20035;-81
2021/05/03 02:00:45;;;;;;;11.65;8.00;;;;;;;9.83;66.63;100237.19;5096734;28;20119;-77
2021/05/03 02:03:25;;;;;;;12.68;8.50;;;;;;;10.02;66.84;100292.00;5096366;28;20028;-75
2021/05/03 02:05:51;;;;;;;11.27;7.80;;;;;;;9.96;66.47;100262.22;5096434;28;20109;-73
2021/05/03 02:08:17;;;;;;;12.05;8.85;;;;;;;9.99;66.62;100300.19;5096298;28;20040;-78
2021/05/03 02:10:43;;;;;;;12.00;8.70;;;;;;;9.95;66.79;100295.13;5078475;28;20028;-75
2021/05/03 02:13:09;;;;;;;13.13;8.82;;;;;;;9.92;67.00;100289.94;5096081;28;20099;-76
2021/05/03 02:15:37;;;;;;;13.15;9.93;;;;;;;9.81;67.55;100295.88;5078051;28;20032;-74
2021/05/03 02:18:04;;;;;;;13.32;9.27;;;;;;;9.80;68.01;100299.50;5096290;28;20078;-75
2021/05/03 02:20:29;;;;;;;11.50;8.73;;;;;;;9.82;68.75;100288.75;5096002;28;20032;-77
2021/05/03 02:22:55;;;;;;;13.65;8.48;;;;;;;9.77;69.11;100304.16;5096190;28;20109;-73
2021/05/03 02:25:20;;;;;;;12.45;9.05;;;;;;;9.49;69.30;100260.41;5095875;28;20044;-76
2021/05/03 02:27:47;;;;;;;12.50;8.80;;;;;;;9.72;69.74;100288.41;5096440;28;20085;-75
2021/05/03 02:30:13;;;;;;;13.00;8.88;;;;;;;9.66;69.91;100284.31;5077772;28;20028;-76
2021/05/03 02:32:40;;;;;;;10.90;8.38;;;;;;;9.74;68.88;100297.16;5078159;28;20423;-75
2021/05/03 02:35:12;;;;;;;11.52;8.45;;;;;;;9.61;69.01;100278.38;5095815;28;20380;-76
2021/05/03 02:37:38;;;;;;;12.02;9.00;;;;;;;9.71;69.40;100302.69;5095686;28;20032;-73
2021/05/03 02:40:05;;;;;;;11.93;8.27;;;;;;;9.61;68.58;100302.34;5095427;28;20472;-74
2021/05/03 02:42:31;;;;;;;11.25;7.85;;;;;;;9.51;68.15;100269.16;5077231;28;20392;-73
2021/05/03 02:44:57;;;;;;;10.82;7.82;;;;;;;9.50;66.95;100267.47;5095898;28;20036;-73
2021/05/03 02:47:22;;;;;;;11.52;7.90;;;;;;;9.56;67.30;100298.22;5095393;28;20077;-73
2021/05/03 02:49:48;;;;;;;12.85;8.02;;;;;;;9.39;67.43;100277.84;5077571;28;20036;-73
2021/05/03 02:52:13;;;;;;;12.38;8.02;;;;;;;9.51;66.61;100298.47;5095280;28;20028;-74
2021/05/03 02:54:39;;;;;;;11.38;7.72;;;;;;;9.18;66.61;100245.28;5095474;28;20036;-74
2021/05/03 02:57:05;;;;;;;11.77;8.15;;;;;;;9.55;66.25;100307.97;5077624;28;20067;-73
2021/05/03 02:59:30;;;;;;;11.57;8.18;;;;;;;9.52;65.60;100307.31;5094813;28;20817;-74
2021/05/03 03:01:56;;;;;;;9.88;6.93;;;;;;;9.48;65.04;100316.41;5094984;28;20374;-73
2021/05/03 03:04:21;;;;;;;9.48;6.47;;;;;;;9.38;64.66;100316.91;5094784;28;20028;-73
2021/05/03 03:06:46;;;;;;;11.55;7.80;;;;;;;9.38;64.44;100332.03;5077109;28;20051;-74
2021/05/03 03:09:13;;;;;;;10.88;7.28;;;;;;;9.38;64.53;100337.34;5076839;28;20039;-75
2021/05/03 03:11:40;;;;;;;11.02;7.68;;;;;;;9.37;64.67;100325.84;5095052;28;20032;-73
2021/05/03 03:14:05;;;;;;;10.10;7.57;;;;;;;9.41;63.95;100337.19;5095174;28;20047;-74
2021/05/03 03:16:31;;;;;;;10.90;7.22;;;;;;;9.38;63.75;100329.38;5094685;28;20052;-75
2021/05/03 03:18:59;;;;;;;9.52;6.63;;;;;;;9.42;63.41;100336.22;5094762;28;20461;-74
2021/05/03 03:21:24;;;;;;;11.43;7.32;;;;;;;9.39;63.69;100318.63;5076510;28;20491;-70
2021/05/03 03:23:50;;;;;;;12.27;8.32;;;;;;;9.40;63.63;100340.78;5060292;28;20036;-70
2021/05/03 03:26:16;;;;;;;10.73;7.03;;;;;;;9.40;63.53;100344.31;5094295;28;20430;-71
2021/05/03 03:28:41;;;;;;;10.18;7.53;;;;;;;9.16;64.10;100338.47;5094537;28;20038;-70
2021/05/03 03:31:07;;;;;;;11.23;7.28;;;;;;;9.30;64.48;100366.19;5095081;28;20508;-73
2021/05/03 03:33:32;;;;;;;9.93;6.85;;;;;;;9.16;64.60;100338.47;5076311;28;20357;-72
2021/05/03 03:35:58;;;;;;;11.80;7.07;;;;;;;9.26;65.03;100375.25;5076534;28;20032;-73
2021/05/03 03:38:23;;;;;;;10.38;7.45;;;;;;;9.08;65.16;100351.34;5076305;28;20039;-74
2021/05/03 03:40:49;;;;;;;12.63;8.52;;;;;;;9.27;65.32;100382.31;5094323;28;20024;-73
2021/05/03 03:43:14;;;;;;;11.23;7.53;;;;;;;9.29;65.22;100380.44;5094403;28;20419;-74
2021/05/03 03:45:40;;;;;;;10.82;7.25;;;;;;;9.24;65.10;100374.47;5076204;28;20066;-74
2021/05/03 03:48:07;;;;;;;11.50;7.57;;;;;;;9.22;65.30;100384.34;5094637;28;20062;-74
2021/05/03 03:50:33;;;;;;;11.55;7.60;;;;;;;9.25;64.98;100384.19;5059458;28;20032;-75
2021/05/03 03:52:58;;;;;;;10.60;7.32;;;;;;;9.21;65.50;100367.53;5094289;28;20039;-74
2021/05/03 03:55:25;;;;;;;10.77;6.95;;;;;;;9.08;65.34;100351.34;5093679;28;20028;-75
2021/05/03 03:57:50;;;;;;;9.55;6.70;;;;;;;9.25;65.57;100394.81;5094129;28;20039;-75
2021/05/03 04:00:16;;;;;;;8.35;6.05;;;;;;;9.15;65.51;100397.97;5075636;28;20489;-76
2021/05/03 04:02:44;;;;;;;9.00;6.03;;;;;;;8.90;65.89;100362.94;5076252;28;20040;-73
2021/05/03 04:26:12;;;;;;;10.20;7.22;;;;;;;9.01;64.96;100415.59;5093808;28;20085;-73
2021/05/03 04:28:38;;;;;;;10.40;7.13;;;;;;;9.03;65.02;100398.59;5093370;28;20054;-72
2021/05/03 04:31:04;;;;;;;11.82;6.25;;;;;;;9.23;64.74;100437.50;5058467;28;20473;-74
2021/05/03 04:33:29;;;;;;;9.63;6.68;;;;;;;9.24;64.43;100444.53;5075111;28;20036;-75
2021/05/03 04:35:55;;;;;;;9.90;7.22;;;;;;;8.77;64.26;100373.31;5075562;28;20036;-74
2021/05/03 04:38:20;;;;;;;10.80;6.43;;;;;;;9.24;64.44;100435.69;5093278;28;20044;-75
2021/05/03 04:40:46;;;;;;;11.68;7.05;;;;;;;9.27;64.06;100451.53;5093440;28;20457;-75
2021/05/03 04:43:14;;;;;;;11.57;6.88;;;;;;;9.29;63.76;100428.34;5093580;28;20068;-74
2021/05/03 04:45:40;;;;;;;9.23;6.53;;;;;;;9.16;63.88;100434.28;5075023;28;20113;-75
2021/05/03 04:48:06;;;;;;;10.82;7.53;;;;;;;9.20;63.64;100426.16;5075515;28;20461;-76
2021/05/03 04:50:31;;;;;;;10.30;6.55;;;;;;;9.28;63.67;100454.09;5093133;28;20421;-74
2021/05/03 04:52:57;;;;;;;10.43;7.40;;;;;;;9.39;63.80;100445.56;5075345;28;20385;-74
2021/05/03 04:55:22;;;;;;;10.25;7.13;;;;;;;9.34;63.87;100444.94;5092919;28;20452;-74
2021/05/03 04:57:48;;;;;;;10.32;7.30;;;;;;;9.41;63.87;100454.31;5074978;28;20028;-74
2021/05/03 05:00:15;;;;;;;10.65;6.88;;;;;;;9.41;63.58;100454.31;5092953;28;20036;-74
2021/05/03 05:02:40;;;;;;;10.30;7.38;;;;;;;9.34;64.28;100442.25;5092879;28;20048;-73
2021/05/03 05:05:10;;;;;;;9.15;6.53;;;;;;;9.40;63.74;100455.28;5092877;28;20085;-74
2021/05/03 05:07:35;;;;;;;10.30;7.05;;;;;;;9.52;63.14;100462.59;5075454;28;20032;-73
2021/05/03 05:10:01;;;;;;;10.70;6.43;;;;;;;9.42;63.61;100456.91;5075021;28;20039;-74
2021/05/03 05:12:27;;;;;;;10.48;7.13;;;;;;;9.30;63.76;100441.56;5092598;28;20047;-75
2021/05/03 05:14:52;;;;;;;10.02;6.85;;;;;;;9.51;63.40;100473.34;5093142;28;20039;-75
2021/05/03 05:17:18;;;;;;;8.75;5.50;;;;;;;9.53;63.70;100471.44;5074688;28;20056;-77
2021/05/03 05:19:43;;;;;;;9.07;6.32;;;;;;;9.46;64.04;100482.44;5074659;28;20113;-75
2021/05/03 05:22:11;;;;;;;12.15;6.47;;;;;;;9.30;64.16;100454.03;5092933;28;20479;-75
2021/05/03 05:24:38;;;;;;;12.32;6.97;;;;;;;9.47;64.77;100475.31;5097398;28;20036;-75
2021/05/03 05:27:03;;;;;;;10.90;7.22;;;;;;;9.57;64.48;100481.03;5099348;28;20047;-74
2021/05/03 05:29:29;;;;;;;9.25;7.03;;;;;;;9.82;62.54;100427.28;5097239;28;20036;-80
2021/05/03 05:31:55;;;;;;;8.35;6.00;;;;;;;9.67;62.75;100429.84;5097306;28;20028;-75
2021/05/03 05:34:20;;;;;;;10.27;6.28;;;;;;;9.98;62.10;100492.13;5079075;28;20461;-73
2021/05/03 05:36:46;;;;;;;9.18;6.53;;;;;;;9.65;63.01;100479.69;5078670;28;20036;-75
2021/05/03 05:39:12;;;;;;;10.07;6.70;;;;;;;9.60;63.49;100492.38;5078663;28;20024;-75
2021/05/03 05:41:39;;;;;;;9.90;6.38;;;;;;;9.51;63.69;100494.66;5078870;28;20118;-75
2021/05/03 05:44:06;;;;;;;10.48;6.93;;;;;;;9.56;63.37;100487.28;5096827;28;20084;-74
2021/05/03 05:46:32;;;;;;;10.82;6.70;;;;;;;9.60;63.31;100499.50;5078888;28;20461;-75
2021/05/03 05:48:58;;;;;;;8.60;6.30;;;;;;;9.54;62.86;100497.13;5078493;28;20055;-75
2021/05/03 05:51:23;;;;;;;9.52;5.38;;;;;;;9.51;63.09;100500.84;5078717;28;20488;-76
2021/05/03 05:53:49;;;;;;;10.13;5.75;;;;;;;9.33;63.23;100491.97;5096528;28;20032;-73
2021/05/03 05:56:14;;;;;;;10.45;6.90;;;;;;;9.40;63.43;100487.22;5078455;28;20028;-77
2021/05/03 05:58:40;;;;;;;9.02;5.93;;;;;;;9.44;63.34;100502.06;5079756;28;20043;-80
2021/05/03 06:01:05;;;;;;;8.20;5.70;;;;;;;9.52;63.25;100509.69;5067668;28;20038;-76
2021/05/03 06:03:31;;;;;;;10.35;6.00;;;;;;;9.40;63.57;100521.81;5096143;28;20465;-75
2021/05/03 06:05:57;;;;;;;8.63;5.75;;;;;;;9.31;63.03;100487.69;5086372;28;20127;-78
2021/05/03 06:08:24;;;;;;;9.80;6.38;;;;;;;9.33;63.36;100488.47;5098520;28;20495;-73
2021/05/03 06:10:49;;;;;;;9.63;6.43;;;;;;;9.47;62.68;100523.25;5080739;28;20041;-78
2021/05/03 06:13:15;;;;;;;9.30;6.00;;;;;;;9.55;62.15;100521.03;5095233;28;20424;-76
2021/05/03 06:15:40;;;;;;;7.75;5.80;;;;;;;9.57;62.74;100518.31;5076827;28;20048;-72
2021/05/03 06:18:07;;;;;;;8.80;4.55;;;;;;;9.41;62.26;100512.91;5060999;28;20035;-71
2021/05/03 06:20:34;;;;;;;8.98;5.30;;;;;;;9.40;62.73;100535.13;5077212;28;20120;-72
2021/05/03 06:23:04;;;;;;;10.85;6.38;;;;;;;9.55;62.20;100536.13;5077502;28;20028;-76
2021/05/03 06:25:30;;;;;;;9.48;6.60;;;;;;;9.62;61.99;100543.75;5095583;28;20032;-77
2021/05/03 06:27:56;;;;;;;10.43;6.32;;;;;;;9.57;61.60;100540.47;5095456;28;20036;-75
2021/05/03 06:30:23;;;;;;;11.20;6.53;;;;;;;9.43;61.62;100522.53;5077310;28;20036;-75
2021/05/03 06:32:50;;;;;;;10.18;6.57;;;;;;;9.69;60.99;100539.81;5076881;28;20036;-77
2021/05/03 06:35:16;;;;;;;11.50;6.05;;;;;;;9.90;60.79;100536.97;5095456;28;20024;-70
2021/05/03 06:37:42;;;;;;;11.82;6.35;;;;;;;10.15;59.83;100548.06;5061352;28;20029;-75
2021/05/03 06:40:08;;;;;;;10.35;5.88;;;;;;;10.32;59.32;100549.84;5074592;28;20120;-73
2021/05/03 06:42:34;;;;;;;7.32;5.68;;;;;;;10.10;59.10;100512.78;5074499;28;20093;-74
2021/05/03 06:44:59;;;;;;;8.68;5.68;;;;;;;10.09;58.39;100561.72;5091214;28;20524;-75
2021/05/03 06:47:26;;;;;;;10.30;6.30;;;;;;;10.24;58.25;100544.09;5097244;28;20161;-77
2021/05/03 06:49:52;;;;;;;9.65;5.97;;;;;;;10.43;57.85;100541.28;5114637;28;20034;-78
2021/05/03 06:52:18;;;;;;;8.93;5.97;;;;;;;10.59;56.28;100552.78;5096952;28;20028;-78
2021/05/03 06:54:43;;;;;;;10.55;6.28;;;;;;;10.55;57.18;100559.25;5119319;28;20173;-80
2021/05/03 06:57:09;;;;;;;8.32;5.82;;;;;;;10.80;55.58;100548.06;5115408;28;20118;-82
2021/05/03 06:59:35;;;;;;;7.95;5.78;;;;;;;11.11;55.41;100569.41;5097568;28;20453;-80
2021/05/03 07:02:00;;;;;;;9.57;6.15;;;;;;;11.28;54.67;100563.09;5097380;28;20035;-80
2021/05/03 07:04:26;;;;;;;9.48;6.43;;;;;;;11.15;54.57;100575.44;5080396;28;20028;-82
2021/05/03 07:06:51;;;;;;;12.60;7.07;;;;;;;11.12;54.48;100540.91;5080546;28;20111;-71
2021/05/03 07:09:17;;;;;;;9.35;6.32;;;;;;;11.71;54.09;100571.25;5074585;28;20028;-78
2021/05/03 07:11:44;;;;;;;8.30;5.45;;;;;;;11.59;53.21;100572.00;5074741;28;20481;-77
2021/05/03 07:14:10;;;;;;;9.82;6.00;;;;;;;11.51;53.52;100576.94;5040460;28;20047;-76
2021/05/03 07:16:36;;;;;;;10.55;6.05;;;;;;;11.86;52.05;100583.72;5056291;28;20052;-75
2021/05/03 07:19:02;;;;;;;7.35;5.03;;;;;;;11.80;51.56;100568.06;5074199;28;20043;-81
2021/05/03 07:21:28;;;;;;;7.32;4.57;;;;;;;11.70;51.07;100574.88;5056190;28;20037;-80
2021/05/03 07:23:54;;;;;;;8.48;5.68;;;;;;;11.58;50.71;100564.91;5073818;28;20032;-78
2021/05/03 07:26:19;;;;;;;9.45;6.43;;;;;;;11.68;50.38;100571.44;5056556;28;20063;-78
2021/05/03 07:28:45;;;;;;;7.43;5.00;;;;;;;11.83;49.72;100589.25;5039678;28;20036;-78
2021/05/03 07:31:10;;;;;;;10.52;5.75;;;;;;;11.98;48.67;100601.72;5074258;28;20143;-76
2021/05/03 07:33:35;;;;;;;8.40;5.03;;;;;;;12.02;49.18;100605.91;5074888;28;20488;-79
2021/05/03 07:36:01;;;;;;;9.88;5.45;;;;;;;12.00;48.66;100610.50;5055698;28;20037;-75
2021/05/03 07:38:27;;;;;;;6.82;4.25;;;;;;;11.76;48.28;100587.84;5073177;28;20032;-77
2021/05/03 07:40:52;;;;;;;9.68;5.60;;;;;;;12.02;48.67;100608.56;5072785;28;20032;-76
2021/05/03 07:43:20;;;;;;;7.53;5.57;;;;;;;11.97;48.51;100600.00;5073595;28;20083;-77
2021/05/03 07:45:45;;;;;;;7.40;5.00;;;;;;;12.46;48.16;100590.75;5055175;28;20037;-78
2021/05/03 07:48:11;;;;;;;8.10;4.57;;;;;;;12.70;46.42;100599.91;5073314;28;20111;-80
2021/05/03 07:50:37;;;;;;;6.38;3.83;;;;;;;12.49;44.39;100607.47;5073363;28;20033;-76
2021/05/03 07:53:04;;;;;;;8.80;4.70;;;;;;;12.81;44.20;100600.06;5055543;28;20044;-78
2021/05/03 07:55:29;;;;;;;5.43;3.72;;;;;;;12.69;44.43;100595.50;5051663;28;20107;-81
2021/05/03 07:57:57;;;;;;;5.78;3.70;;;;;;;12.94;44.11;100573.41;5052507;28;20131;-80
2021/05/03 08:00:23;;;;;;;8.65;4.13;;;;;;;12.71;43.86;100577.53;5044673;28;20378;-79
2021/05/03 08:02:48;;;;;;;5.78;3.88;;;;;;;12.83;44.07;100610.69;5070784;28;20035;-75
2021/05/03 08:05:14;;;;;;;5.65;3.97;;;;;;;12.78;42.77;100604.78;5055427;28;20542;-74
2021/05/03 08:07:39;;;;;;;9.38;3.63;;;;;;;12.71;41.80;100623.03;5087588;28;20032;-74
2021/05/03 08:10:06;;;;;;;5.00;3.13;;;;;;;12.81;41.49;100612.59;5069242;28;20043;-74
2021/05/03 08:12:32;;;;;;;5.32;2.90;;;;;;;12.81;40.12;100617.97;5074931;28;20060;-76
2021/05/03 08:14:59;;;;;;;4.15;2.38;;;;;;;12.65;39.06;100602.03;5074904;28;20067;-76
2021/05/03 08:17:25;;;;;;;3.03;1.58;;;;;;;12.76;39.30;100601.34;5090904;28;20509;-82
2021/05/03 08:19:51;;;;;;;4.28;2.78;;;;;;;12.47;39.60;100574.63;5074886;28;20055;-74
2021/05/03 08:22:17;;;;;;;4.57;2.80;;;;;;;12.92;40.36;100594.03;5058137;28;20521;-74
2021/05/03 08:24:43;;;;;;;3.30;2.08;;;;;;;12.82;39.86;100600.94;5074593;28;20032;-72
2021/05/03 08:27:09;;;;;;;6.32;2.85;;;;;;;12.57;39.79;100615.88;5092764;28;20058;-74
2021/05/03 08:29:35;;;;;;;6.82;2.58;;;;;;;12.33;38.68;100622.75;5092577;28;20047;-77
2021/05/03 08:32:02;;;;;;;5.43;2.72;;;;;;;12.56;38.56;100621.34;5092000;28;20439;-77
2021/05/03 08:34:28;;;;;;;6.45;2.40;;;;;;;12.75;37.96;100650.50;5058456;28;20385;-74
2021/05/03 08:36:56;;;;;;;4.90;2.50;;;;;;;12.76;37.68;100620.94;5092099;28;20042;-74
2021/05/03 08:39:23;;;;;;;3.65;2.05;;;;;;;13.17;37.29;100612.91;5058758;28;20044;-75
2021/05/03 08:41:49;;;;;;;3.53;1.90;;;;;;;13.27;36.95;100605.19;5099434;28;20043;-76
2021/05/03 08:44:14;;;;;;;7.30;2.72;;;;;;;13.32;36.40;100611.09;5061781;28;20043;-72
2021/05/03 08:46:44;;;;;;;6.13;2.60;;;;;;;13.32;37.12;100596.84;5093063;28;20032;-74
2021/05/03 08:49:30;;;;;;;5.55;2.70;;;;;;;13.12;37.30;100580.25;5075571;28;20369;-71
2021/05/03 08:52:41;;;;;;;6.68;2.63;;;;;;;12.92;36.56;100591.34;5092058;28;20127;-71
2021/05/03 08:54:45;;;;;;;3.78;1.67;;;;;;;13.14;35.52;100609.59;5066782;28;20131;-74
2021/05/03 08:57:13;;;;;;;9.80;2.45;;;;;;;13.20;34.95;100611.03;5074448;28;20031;-75
2021/05/03 08:59:40;;;;;;;4.40;2.20;;;;;;;12.98;35.33;100609.72;5092285;28;20048;-71
2021/05/03 09:02:07;;;;;;;3.40;1.92;;;;;;;12.98;36.40;100585.63;5091902;28;20444;-72
2021/05/03 09:04:34;;;;;;;4.70;2.53;;;;;;;12.92;36.91;100588.69;5074523;28;20113;-75
2021/05/03 09:07:05;;;;;;;6.80;2.30;;;;;;;13.07;37.01;100608.25;5082845;28;20044;-76
2021/05/03 09:09:35;;;;;;;8.80;2.60;;;;;;;13.18;37.89;100611.97;5072084;28;20059;-75
2021/05/03 09:12:18;;;;;;;9.75;2.33;;;;;;;12.78;35.79;100623.53;5071497;28;20041;-74
2021/05/03 09:14:51;;;;;;;3.72;1.60;;;;;;;13.13;35.67;100599.84;5072019;28;20056;-78
2021/05/03 09:17:27;;;;;;;2.27;1.63;;;;;;;12.86;35.49;100600.66;5071931;28;20128;-70
2021/05/03 09:19:55;;;;;;;2.30;1.70;;;;;;;13.26;35.27;100616.00;5071646;28;20052;-71
2021/05/03 09:22:31;;;;;;;3.53;1.73;;;;;;;13.38;35.45;100625.91;5053842;28;20037;-69
2021/05/03 09:25:15;;;;;;;2.78;1.85;;;;;;;13.45;35.95;100624.53;5072070;28;20078;-68
2021/05/03 09:27:41;;;;;;;3.90;2.35;;;;;;;13.81;35.70;100604.28;5072212;28;20028;-72
2021/05/03 09:30:07;;;;;;;5.82;1.73;;;;;;;13.54;35.67;100570.31;5037042;28;20082;-70
2021/05/03 09:32:33;;;;;;;6.00;2.47;;;;;;;13.88;35.17;100610.91;5071913;28;20032;-70
2021/05/03 09:34:58;;;;;;;4.32;2.08;;;;;;;13.87;35.66;100626.16;5071924;28;20035;-70
2021/05/03 09:37:34;;;;;;;3.70;2.10;;;;;;;13.94;36.01;100621.25;5072016;28;20098;-71
2021/05/03 09:40:09;;;;;;;5.72;2.75;;;;;;;13.59;35.34;100596.81;5071811;28;20121;-69
2021/05/03 09:42:54;;;;;;;4.40;2.05;;;;;;;13.90;36.51;100598.28;5071947;28;20381;-70
2021/05/03 09:45:24;;;;;;;4.00;2.42;;;;;;;13.83;35.48;100643.44;5071616;28;20036;-69
2021/05/03 09:47:54;;;;;;;6.45;2.75;;;;;;;14.23;35.03;100651.44;5053645;28;20044;-71
2021/05/03 09:50:23;;;;;;;3.95;2.22;;;;;;;13.86;34.18;100602.13;5071854;28;20055;-74
2021/05/03 09:53:09;;;;;;;6.93;2.80;;;;;;;14.23;33.68;100625.47;5071277;28;20039;-72
2021/05/03 09:55:40;;;;;;;4.15;2.50;;;;;;;13.99;34.05;100611.03;5053763;28;20036;-72
2021/05/03 09:58:06;;;;;;;6.55;2.67;;;;;;;14.17;34.16;100622.31;5071602;28;20025;-75
2021/05/03 10:00:39;;;;;;;4.85;2.28;;;;;;;14.19;33.42;100626.66;5071515;28;20346;-72
2021/05/03 10:03:23;;;;;;;;;;;;;;;14.21;33.86;100632.75;5054075;28;20127;-72
2021/05/03 10:05:49;;;;;;;4.78;2.63;;;;;;;14.40;33.19;100618.06;5053895;28;20254;-74
2021/05/03 10:08:14;;;;;;;3.53;2.22;;;;;;;14.49;33.22;100587.94;5091059;28;20036;-76
2021/05/03 10:10:45;;;;;;;6.53;2.53;;;;;;;14.21;32.54;100588.97;5073736;28;20043;-71
2021/05/03 10:13:12;;;;;;;4.03;2.20;;;;;;;13.88;32.47;100563.50;5076837;28;20036;-75
2021/05/03 10:15:37;;;;;;;2.95;1.80;;;;;;;14.27;32.49;100594.75;5077088;28;20126;-74
2021/05/03 10:18:03;;;;;;;4.03;2.22;;;;;;;14.00;32.18;100608.28;5077191;28;20584;-74
2021/05/03 10:20:29;;;;;;;3.80;2.30;;;;;;;13.98;32.66;100603.97;5075943;28;20024;-75
2021/05/03 10:22:56;;;;;;;5.05;2.10;;;;;;;14.25;31.23;100603.88;5077421;28;20165;-74
2021/05/03 10:25:22;;;;;;;4.05;2.17;;;;;;;14.19;32.04;100615.91;5077504;28;20097;-74
2021/05/03 10:27:48;;;;;;;4.82;2.53;;;;;;;14.44;31.59;100569.41;5077115;28;20036;-75
2021/05/03 10:30:13;;;;;;;3.20;1.85;;;;;;;14.50;30.88;100592.31;5076851;28;20057;-77
2021/05/03 10:32:40;;;;;;;6.93;2.22;;;;;;;14.55;30.53;100574.03;5094994;28;20059;-75
2021/05/03 10:35:08;;;;;;;5.15;2.40;;;;;;;14.21;31.01;100608.63;5095043;28;20076;-76
2021/05/03 10:37:42;;;;;;;4.57;2.15;;;;;;;14.47;31.26;100585.31;5088764;28;20036;-74
2021/05/03 10:40:16;;;;;;;2.50;1.48;;;;;;;14.64;31.34;100578.75;5094520;28;20031;-76
2021/05/03 10:43:01;;;;;;;2.97;1.73;;;;;;;14.85;31.40;100601.38;5077214;28;20043;-75
2021/05/03 10:48:38;;;;;;;3.92;2.45;;;;;;;14.39;31.00;100602.94;5094883;28;20118;-75
2021/05/03 10:51:07;;;;;;;4.32;2.10;;;;;;;14.26;31.36;100578.75;5094444;28;20034;-73
2021/05/03 10:53:37;;;;;;;4.50;2.50;;;;;;;14.14;31.02;100569.75;5076584;28;20069;-74
2021/05/03 10:56:12;;;;;;;4.25;2.10;;;;;;;14.66;31.24;100598.28;5094608;28;20040;-77
2021/05/03 10:59:01;;;;;;;4.85;2.63;;;;;;;15.00;31.60;100591.34;5095040;28;20032;-72
2021/05/03 11:01:26;;;;;;;5.82;2.70;;;;;;;14.82;31.55;100581.94;5062854;28;20039;-74
2021/05/03 11:03:54;;;;;;;4.70;2.47;;;;;;;14.73;32.41;100588.84;5072083;28;20040;-78
2021/05/03 11:06:41;;;;;;;3.55;1.90;;;;;;;14.48;30.00;100584.38;5089904;28;20037;-72
2021/05/03 11:09:25;;;;;;;4.47;2.30;;;;;;;14.23;29.61;100590.59;5085523;28;20071;-77
2021/05/03 11:11:52;;;;;;;4.55;2.42;;;;;;;14.17;30.81;100574.91;5076114;28;20162;-76
2021/05/03 11:14:20;;;;;;;5.45;2.50;;;;;;;14.35;30.56;100578.13;5056200;28;20111;-79
2021/05/03 11:16:52;;;;;;;5.03;2.00;;;;;;;14.39;30.93;100557.31;5065099;28;20055;-75
2021/05/03 11:22:05;;;;;;;4.93;2.45;;;;;;;14.66;29.96;100571.44;5093539;28;20032;-78
2021/05/03 11:24:34;;;;;;;2.92;1.75;;;;;;;14.57;29.71;100529.16;5093436;28;20547;-75
2021/05/03 11:27:05;;;;;;;3.08;1.75;;;;;;;14.96;30.03;100565.69;5076614;28;20119;-75
2021/05/03 11:32:15;;;;;;;3.65;2.10;;;;;;;14.65;29.27;100553.63;5093709;28;20084;-74
2021/05/03 11:35:20;;;;;;;3.90;2.03;;;;;;;15.20;29.99;100557.63;5075662;28;20032;-74
2021/05/03 11:38:01;;;;;;;5.55;2.38;;;;;;;15.17;29.83;100572.16;5063628;28;20393;-75
2021/05/03 11:40:54;;;;;;;1.85;1.58;;;;;;;14.25;30.05;100551.06;5073473;28;20492;-82
2021/05/03 11:46:25;;;;;;;5.10;2.45;;;;;;;14.50;31.23;100547.56;5074091;28;20036;-81
2021/05/03 11:48:55;;;;;;;4.72;2.30;;;;;;;14.88;30.92;100582.38;5073976;28;20032;-77
2021/05/03 11:51:21;;;;;;;4.60;2.60;;;;;;;14.69;29.85;100565.03;5056067;28;20040;-74
2021/05/03 11:53:46;;;;;;;3.67;2.28;;;;;;;14.55;30.06;100549.88;5038932;28;20044;-76
2021/05/03 11:56:26;;;;;;;3.58;2.05;;;;;;;14.57;30.14;100556.88;5056114;28;20040;-77
2021/05/03 11:58:55;;;;;;;5.50;1.98;;;;;;;14.41;29.90;100517.81;5073543;28;20040;-76